Home > Products > Valid Products > TAF

000
FTUS45 KGGW 242300
TAFGDV
TAF
KGDV 242320Z 2500/2524 31023G32KT P6SM SCT030
     FM250900 30009KT P6SM SCT250
     FM251200 28008KT P6SM BKN090
     FM251800 21013KT P6SM BKN090
      AMD LTD TO CLD VIS AND WIND=



000
FTUS45 KGGW 242300
TAFOLF
TAF
KOLF 242320Z 2500/2524 29017KT P6SM SCT250
     FM250900 27009KT P6SM SCT250
     FM251200 26008KT P6SM BKN090=



000
FTUS45 KGGW 242300
TAFGGW
TAF
KGGW 242320Z 2500/2524 31017KT P6SM SCT250
     FM250900 30007KT P6SM SCT250
     FM251200 VRB06KT P6SM BKN090=



000
FTUS45 KGGW 242300
TAFSDY
TAF
KSDY 242320Z 2500/2524 30018G28KT P6SM SCT030
     FM250600 30014KT P6SM BKN100
     FM251500 25009KT P6SM BKN090
      AMD LTD TO CLD VIS AND WIND=



000
FTUS45 KGGW 242300
TAFOLF
TAF
KOLF 242320Z 2500/2524 29017KT P6SM SCT250
     FM250900 27009KT P6SM SCT250
     FM251200 26008KT P6SM BKN090=



000
FTUS45 KGGW 242000 AAA
TAFGDV
TAF AMD
KGDV 242048Z 2421/2518 28027G37KT P6SM SCT100
     FM250300 30015KT P6SM SCT200
      AMD LTD TO CLD VIS AND WIND=



000
FTUS45 KGGW 242000 AAA
TAFGDV
TAF AMD
KGDV 242048Z 2421/2518 28027G37KT P6SM SCT100
     FM250300 30015KT P6SM SCT200
      AMD LTD TO CLD VIS AND WIND=



000
FTUS45 KGGW 241700
TAFGDV
TAF
KGDV 241720Z 2418/2518 27020G25KT P6SM VCSH OVC090
     FM242100 28020G25KT P6SM BKN100
     FM250300 30015KT P6SM SCT200
      AMD LTD TO CLD VIS AND WIND=



000
FTUS45 KGGW 241700
TAFGGW
TAF
KGGW 241720Z 2418/2518 31020G25KT P6SM VCSH BKN050
     FM242100 31020G25KT P6SM BKN100
     FM250300 30010KT P6SM SCT200
     FM250900 09006KT P6SM BKN250=



000
FTUS45 KGGW 241700
TAFOLF
TAF
KOLF 241720Z 2418/2518 30020G25KT P6SM VCSH SCT060 BKN080
     FM242100 31020G25KT P6SM BKN100
     FM250300 27010KT P6SM SCT200=



000
FTUS45 KGGW 241700
TAFGDV
TAF
KGDV 241720Z 2418/2518 27020G25KT P6SM VCSH OVC090
     FM242100 28020G25KT P6SM BKN100
     FM250300 30015KT P6SM SCT200
      AMD LTD TO CLD VIS AND WIND=



000
FTUS45 KGGW 241700
TAFSDY
TAF
KSDY 241720Z 2418/2518 27020G25KT P6SM VCSH BKN090
     FM242100 30020G25KT P6SM BKN100
     FM250300 30015KT P6SM SCT050 BKN100
      AMD LTD TO CLD VIS AND WIND=



000
FTUS45 KGGW 241700
TAFOLF
TAF
KOLF 241720Z 2418/2518 30020G25KT P6SM VCSH SCT060 BKN080
     FM242100 31020G25KT P6SM BKN100
     FM250300 27010KT P6SM SCT200=



000
FTUS45 KGGW 241100
TAFSDY
TAF
KSDY 241130Z 2412/2512 26013KT 6SM -RA BKN050 WS020/29045KT
     FM241600 29018G27KT P6SM VCSH BKN080
     FM250300 29013KT P6SM BKN140
      AMD LTD TO CLD VIS AND WIND=



000
FTUS45 KGGW 241100
TAFGGW
TAF
KGGW 241130Z 2412/2512 26007KT P6SM BKN100 WS020/35035KT
     FM241500 29015G22KT P6SM BKN080
     FM250100 31009KT P6SM SCT200=



000
FTUS45 KGGW 241100
TAFOLF
TAF
KOLF 241130Z 2412/2512 25008KT P6SM BKN080 WS020/33035KT
     FM241700 30016G23KT P6SM BKN070
     FM250100 27010KT P6SM SCT200=



000
FTUS45 KGGW 241100
TAFGDV
TAF
KGDV 241130Z 2412/2512 27012KT P6SM VCSH BKN050 WS020/32045KT
     FM241500 29017G25KT P6SM BKN070
     FM250300 29014KT P6SM SCT200
      AMD LTD TO CLD VIS AND WIND=



000
FTUS45 KGGW 241100
TAFGDV
TAF
KGDV 241130Z 2412/2512 27012KT P6SM VCSH BKN050 WS020/32045KT
     FM241500 29017G25KT P6SM BKN070
     FM250300 29014KT P6SM SCT200
      AMD LTD TO CLD VIS AND WIND=



000
FTUS45 KGGW 241100
TAFOLF
TAF
KOLF 241130Z 2412/2512 25008KT P6SM BKN080 WS020/33035KT
     FM241700 30016G23KT P6SM BKN070
     FM250100 27010KT P6SM SCT200=



000
FTUS45 KGGW 240500
TAFGGW
TAF
KGGW 240520Z 2406/2506 26007KT P6SM BKN210 WS020/35035KT
     FM241500 29013KT P6SM BKN160=



000
FTUS45 KGGW 240500
TAFGDV
TAF
KGDV 240520Z 2406/2506 27012KT P6SM VCSH BKN200
     FM241800 29017G25KT P6SM BKN200 WS020/32050KT
     FM250000 29017G26KT P6SM SCT240 WS020/32045KT
      AMD LTD TO CLD VIS AND WIND=



000
FTUS45 KGGW 240500
TAFSDY
TAF
KSDY 240520Z 2406/2506 27014KT P6SM VCSH BKN200
     FM241200 26013KT 6SM -FZRA BKN050 WS020/29045KT
     FM241800 29018G27KT P6SM VCSH BKN080
     FM250000 29018G26KT P6SM BKN140
      AMD LTD TO CLD VIS AND WIND=



000
FTUS45 KGGW 240500
TAFOLF
TAF
KOLF 240520Z 2406/2506 25011KT P6SM VCSH BKN180 WS020/33035KT
     FM241800 28014KT P6SM BKN190 WS020/32045KT=



000
FTUS45 KGGW 232300
TAFSDY
TAF
KSDY 232320Z 2400/2424 27013KT P6SM FEW250
     FM241200 25011KT P6SM VCSH BKN110
     FM241800 29018G27KT P6SM VCSH BKN028
      AMD LTD TO CLD VIS AND WIND=



000
FTUS45 KGGW 232300
TAFOLF
TAF
KOLF 232320Z 2400/2424 26010KT P6SM BKN250
     FM241200 24008KT 5SM -RA BKN070
     FM241800 28014KT P6SM BKN190 WS020/32045KT=



000
FTUS45 KGGW 232300
TAFGDV
TAF
KGDV 232320Z 2400/2424 25011KT P6SM SCT250
     FM241200 23010KT P6SM VCSH BKN070 WS020/35035KT
     FM241800 29017G25KT P6SM BKN045 WS020/31045KT
      AMD LTD TO CLD VIS AND WIND=



000
FTUS45 KGGW 232300
TAFGDV
TAF
KGDV 232320Z 2400/2424 25011KT P6SM SCT250
     FM241200 23010KT P6SM VCSH BKN070 WS020/35035KT
     FM241800 29017G25KT P6SM BKN045 WS020/31045KT
      AMD LTD TO CLD VIS AND WIND=



000
FTUS45 KGGW 232300
TAFOLF
TAF
KOLF 232320Z 2400/2424 26010KT P6SM BKN250
     FM241200 24008KT 5SM -RA BKN070
     FM241800 28014KT P6SM BKN190 WS020/32045KT=



000
FTUS45 KGGW 232300
TAFGGW
TAF
KGGW 232320Z 2400/2424 29009KT P6SM BKN250
     FM241200 VRB06KT P6SM VCSH BKN080 WS020/29040KT
     FM241500 29010KT P6SM VCSH BKN100
     FM241800 30015KT P6SM BKN210 WS020/32045KT=



000
FTUS45 KGGW 232100 AAA
TAFGDV
TAF AMD
KGDV 232137Z 2322/2418 25015KT P6SM FEW250
     FM240000 27010KT P6SM SCT250
     FM241200 24008KT P6SM VCSH BKN060
      AMD LTD TO CLD VIS AND WIND=



000
FTUS45 KGGW 232100 AAA
TAFGDV
TAF AMD
KGDV 232137Z 2322/2418 25015KT P6SM FEW250
     FM240000 27010KT P6SM SCT250
     FM241200 24008KT P6SM VCSH BKN060
      AMD LTD TO CLD VIS AND WIND=



000
FTUS45 KGGW 232100 AAA
TAFGGW
TAF AMD
KGGW 232136Z 2322/2418 28015G20KT P6SM FEW250
     FM240000 28010KT P6SM SCT250
     FM240900 VRB04KT P6SM SCT070
     FM241200 VRB03KT P6SM BKN060
     FM241500 28008KT P6SM VCSH BKN050=



000
FTUS45 KGGW 232000 AAA
TAFSDY
TAF AMD
KSDY 232036Z 2321/2418 26020G25KT P6SM FEW250
     FM240000 26010KT P6SM SCT250
     FM241200 26012KT P6SM VCSH BKN070
      AMD LTD TO CLD VIS AND WIND=



000
FTUS45 KGGW 231700
TAFOLF
TAF
KOLF 231720Z 2318/2418 26011KT P6SM FEW250
     FM240000 25009KT P6SM FEW250
     FM241200 25010KT P6SM VCSH BKN050=



000
FTUS45 KGGW 231700
TAFGDV
TAF
KGDV 231720Z 2318/2418 28011KT P6SM FEW250
     FM241200 24008KT P6SM VCSH BKN060
      AMD LTD TO CLD VIS AND WIND=



000
FTUS45 KGGW 231700
TAFGDV
TAF
KGDV 231720Z 2318/2418 28011KT P6SM FEW250
     FM241200 24008KT P6SM VCSH BKN060
      AMD LTD TO CLD VIS AND WIND=



000
FTUS45 KGGW 231700
TAFSDY
TAF
KSDY 231720Z 2318/2418 27016KT P6SM FEW250
     FM241200 26012KT P6SM VCSH BKN070
      AMD LTD TO CLD VIS AND WIND=



000
FTUS45 KGGW 231700
TAFOLF
TAF
KOLF 231720Z 2318/2418 26011KT P6SM FEW250
     FM240000 25009KT P6SM FEW250
     FM241200 25010KT P6SM VCSH BKN050=



000
FTUS45 KGGW 231700
TAFGGW
TAF
KGGW 231720Z 2318/2418 28008KT P6SM FEW250
     FM240900 VRB04KT P6SM SCT070
     FM241200 VRB03KT P6SM BKN060
     FM241500 28008KT P6SM VCSH BKN050=



000
FTUS45 KGGW 231100
TAFOLF
TAF
KOLF 231136Z 2312/2412 25010KT P6SM FEW240=



000
FTUS45 KGGW 231100
TAFGDV
TAF
KGDV 231136Z 2312/2412 28013KT P6SM FEW240
      AMD LTD TO CLD VIS AND WIND=



000
FTUS45 KGGW 231100
TAFGGW
TAF
KGGW 231136Z 2312/2412 30008KT P6SM FEW180=



000
FTUS45 KGGW 231100
TAFOLF
TAF
KOLF 231136Z 2312/2412 25010KT P6SM FEW240=



000
FTUS45 KGGW 231100
TAFSDY
TAF
KSDY 231136Z 2312/2412 27013KT P6SM FEW100 FEW240
      AMD LTD TO CLD VIS AND WIND=



000
FTUS45 KGGW 231100
TAFGDV
TAF
KGDV 231136Z 2312/2412 28013KT P6SM FEW240
      AMD LTD TO CLD VIS AND WIND=



000
FTUS45 KGGW 230500
TAFOLF
TAF
KOLF 230520Z 2306/2406 25008KT P6SM SCT230
     FM231800 26012KT P6SM SCT250=



000
FTUS45 KGGW 230500
TAFGDV
TAF
KGDV 230520Z 2306/2406 28008KT P6SM SCT090
      AMD LTD TO CLD VIS AND WIND=



000
FTUS45 KGGW 230500
TAFOLF
TAF
KOLF 230520Z 2306/2406 25008KT P6SM SCT230
     FM231800 26012KT P6SM SCT250=



000
FTUS45 KGGW 230500
TAFSDY
TAF
KSDY 230520Z 2306/2406 28012KT P6SM SCT100
      AMD LTD TO CLD VIS AND WIND=



000
FTUS45 KGGW 230500
TAFGGW
TAF
KGGW 230520Z 2306/2406 30007KT P6SM SCT230=



000
FTUS45 KGGW 230500
TAFGDV
TAF
KGDV 230520Z 2306/2406 28008KT P6SM SCT090
      AMD LTD TO CLD VIS AND WIND=



000
FTUS45 KGGW 222300
TAFOLF
TAF
KOLF 222320Z 2300/2324 26011KT P6SM SCT230 WS010/30030KT
     FM230600 26010KT P6SM SCT250=



000
FTUS45 KGGW 222300
TAFGDV
TAF
KGDV 222320Z 2300/2324 22011KT P6SM SCT250 WS010/30030KT
     FM230600 23006KT P6SM FEW250
     FM231200 28009KT P6SM FEW250
      AMD LTD TO CLD VIS AND WIND=



000
FTUS45 KGGW 222300
TAFGDV
TAF
KGDV 222320Z 2300/2324 22011KT P6SM SCT250 WS010/30030KT
     FM230600 23006KT P6SM FEW250
     FM231200 28009KT P6SM FEW250
      AMD LTD TO CLD VIS AND WIND=



000
FTUS45 KGGW 222300
TAFGGW
TAF
KGGW 222320Z 2300/2324 29009KT P6SM SCT230 WS010/30030KT
     FM230600 VRB06KT P6SM SCT240=



000
FTUS45 KGGW 222300
TAFSDY
TAF
KSDY 222320Z 2300/2324 18010KT P6SM SCT250 WS010/30030KT
     FM230600 24006KT P6SM FEW250
     FM231200 27012KT P6SM FEW250
      AMD LTD TO CLD VIS AND WIND=



000
FTUS45 KGGW 222300
TAFOLF
TAF
KOLF 222320Z 2300/2324 26011KT P6SM SCT230 WS010/30030KT
     FM230600 26010KT P6SM SCT250=



000
FTUS45 KGGW 221700
TAFOLF
TAF
KOLF 221728Z 2218/2318 26010KT P6SM BKN150
     FM230200 27007KT P6SM VCSH BKN080 WS010/30030KT
     FM230600 26007KT P6SM SCT120 WS010/31030KT=



000
FTUS45 KGGW 221700
TAFGDV
TAF
KGDV 221728Z 2218/2318 22014KT P6SM BKN120
     FM230300 27010KT P6SM VCSH BKN060 WS010/30030KT
     FM231000 28010KT P6SM SCT100 WS010/32030KT
      AMD LTD TO CLD VIS AND WIND=



000
FTUS45 KGGW 221700
TAFSDY
TAF
KSDY 221728Z 2218/2318 20012KT P6SM BKN120
     FM230300 27010KT P6SM VCSH BKN080 WS010/31030KT
     FM230700 28010KT P6SM SCT120 WS010/32030KT
      AMD LTD TO CLD VIS AND WIND=



000
FTUS45 KGGW 221700
TAFGDV
TAF
KGDV 221728Z 2218/2318 22014KT P6SM BKN120
     FM230300 27010KT P6SM VCSH BKN060 WS010/30030KT
     FM231000 28010KT P6SM SCT100 WS010/32030KT
      AMD LTD TO CLD VIS AND WIND=



000
FTUS45 KGGW 221700
TAFOLF
TAF
KOLF 221728Z 2218/2318 26010KT P6SM BKN150
     FM230200 27007KT P6SM VCSH BKN080 WS010/30030KT
     FM230600 26007KT P6SM SCT120 WS010/31030KT=



000
FTUS45 KGGW 221700
TAFGGW
TAF
KGGW 221728Z 2218/2318 26007KT P6SM BKN250
     FM230200 30008KT P6SM VCSH BKN080 WS010/30030KT
     FM230700 30009KT P6SM SCT120 WS010/30030KT=



000
FTUS45 KGGW 221100
TAFSDY
TAF
KSDY 221136Z 2212/2312 20012KT P6SM BKN110
     FM230300 27015KT P6SM BKN100
      AMD LTD TO CLD VIS AND WIND=



000
FTUS45 KGGW 221100
TAFOLF
TAF
KOLF 221136Z 2212/2312 24008KT P6SM BKN090
     FM221800 26010KT P6SM SCT100
     FM230000 26010KT P6SM BKN110=



000
FTUS45 KGGW 221100
TAFGDV
TAF
KGDV 221136Z 2212/2312 21010KT P6SM BKN120
     FM230900 28009KT P6SM BKN090
      AMD LTD TO CLD VIS AND WIND=



000
FTUS45 KGGW 221100
TAFGDV
TAF
KGDV 221136Z 2212/2312 21010KT P6SM BKN120
     FM230900 28009KT P6SM BKN090
      AMD LTD TO CLD VIS AND WIND=



000
FTUS45 KGGW 221100
TAFGGW
TAF
KGGW 221136Z 2212/2312 VRB03KT P6SM BKN100
     FM222100 27007KT P6SM BKN100=



000
FTUS45 KGGW 221100
TAFOLF
TAF
KOLF 221136Z 2212/2312 24008KT P6SM BKN090
     FM221800 26010KT P6SM SCT100
     FM230000 26010KT P6SM BKN110=



000
FTUS45 KGGW 220500
TAFSDY
TAF
KSDY 220520Z 2206/2306 22008KT P6SM SCT180
     FM222100 25012KT P6SM SCT100
     FM230000 26011KT P6SM BKN110
      AMD LTD TO CLD VIS AND WIND=



000
FTUS45 KGGW 220500
TAFOLF
TAF
KOLF 220520Z 2206/2306 VRB04KT P6SM SCT160 WS010/23030KT
     FM221500 VRB06KT P6SM SCT130
     FM221800 25008KT P6SM SCT100
     FM230000 25009KT P6SM BKN120=



000
FTUS45 KGGW 220500
TAFGDV
TAF
KGDV 220520Z 2206/2306 21007KT P6SM SCT200
     FM221800 22011KT P6SM SCT110
     FM230000 24009KT P6SM BKN120
      AMD LTD TO CLD VIS AND WIND=



000
FTUS45 KGGW 220500
TAFOLF
TAF
KOLF 220520Z 2206/2306 VRB04KT P6SM SCT160 WS010/23030KT
     FM221500 VRB06KT P6SM SCT130
     FM221800 25008KT P6SM SCT100
     FM230000 25009KT P6SM BKN120=



000
FTUS45 KGGW 220500
TAFGDV
TAF
KGDV 220520Z 2206/2306 21007KT P6SM SCT200
     FM221800 22011KT P6SM SCT110
     FM230000 24009KT P6SM BKN120
      AMD LTD TO CLD VIS AND WIND=



000
FTUS45 KGGW 220500
TAFGGW
TAF
KGGW 220520Z 2206/2306 VRB05KT P6SM SCT150 WS010/22030KT
     FM221600 VRB05KT P6SM SCT130
     FM230000 VRB06KT P6SM BKN110=



000
FTUS45 KGGW 220400 AAA
TAFOLF
TAF AMD
KOLF 220414Z 2204/2224 VRB04KT P6SM FEW250
     FM221800 25008KT P6SM SCT100=



000
FTUS45 KGGW 220400 AAA
TAFGGW
TAF AMD
KGGW 220414Z 2204/2224 VRB06KT P6SM FEW220=



000
FTUS45 KGGW 220400 AAA
TAFGDV
TAF AMD
KGDV 220414Z 2204/2224 VRB06KT P6SM FEW070
     FM220900 21010KT P6SM SCT210
      AMD LTD TO CLD VIS AND WIND=



000
FTUS45 KGGW 220400 AAA
TAFSDY
TAF AMD
KSDY 220414Z 2204/2224 VRB06KT P6SM FEW040
     FM220600 22008KT P6SM SCT180
     FM222100 25012KT P6SM SCT100
      AMD LTD TO CLD VIS AND WIND=



000
FTUS45 KGGW 220400 AAA
TAFOLF
TAF AMD
KOLF 220414Z 2204/2224 VRB04KT P6SM FEW250
     FM221800 25008KT P6SM SCT100=



000
FTUS45 KGGW 220400 AAA
TAFGDV
TAF AMD
KGDV 220414Z 2204/2224 VRB06KT P6SM FEW070
     FM220900 21010KT P6SM SCT210
      AMD LTD TO CLD VIS AND WIND=



000
FTUS45 KGGW 220400 AAA
TAFGDV
TAF AMD
KGDV 220414Z 2204/2224 VRB06KT P6SM FEW070
     FM220900 21010KT P6SM SCT210
      AMD LTD TO CLD VIS AND WIND=



000
FTUS45 KGGW 220400 AAA
TAFOLF
TAF AMD
KOLF 220414Z 2204/2224 VRB04KT P6SM FEW250
     FM221800 25008KT P6SM SCT100=



000
FTUS45 KGGW 220400 AAA
TAFOLF
TAF AMD
KOLF 220414Z 2204/2224 VRB04KT P6SM FEW250
     FM221800 25008KT P6SM SCT100=



000
FTUS45 KGGW 220400 AAA
TAFGDV
TAF AMD
KGDV 220414Z 2204/2224 VRB06KT P6SM FEW070
     FM220900 21010KT P6SM SCT210
      AMD LTD TO CLD VIS AND WIND=



000
FTUS45 KGGW 220400 AAA
TAFGGW
TAF AMD
KGGW 220414Z 2204/2224 VRB06KT P6SM FEW220=



000
FTUS45 KGGW 220400 AAA
TAFSDY
TAF AMD
KSDY 220414Z 2204/2224 VRB06KT P6SM FEW040
     FM220600 22008KT P6SM SCT180
     FM222100 25012KT P6SM SCT100
      AMD LTD TO CLD VIS AND WIND=



    US Dept of Commerce
    National Oceanic and Atmospheric Administration
    National Weather Service
    1325 East West Highway
    Silver Spring, MD 20910
    Page Author: NWS Internet Services Team
Disclaimer
Information Quality
Credits
Glossary
Privacy Policy
Freedom of Information Act (FOIA)
About Us
Career Opportunities